Howard, GA (31039)

11:12 PM EDT on September 22, 2014 (GMT -0400)
Potterville | Change Station
CLOSE
Current Station
Personal Weather Station
Location: Reynolds, GA
Elevation: 420 ft
Nearby Weather Stations

Elev 420 ft 32.52 °N, 84.12 °W | Updated 9 minutes ago

Mostly Cloudy
Mostly Cloudy
65.1 °F
Feels Like 65.1 °F
N
0.0
Wind Variable Wind from East
Gusts 0.0 mph

Today
High -- | Low -- °F
--% Chance of Precip.
Yesterday
High -- | Low -- °F
Precip. -- in
7:25 AM 7:33 PM
Waning Crescent, 1% visible
Pressure 30.12 in
Visibility 7.0 miles
Clouds Overcast 500 ft
Dew Point 65 °F
Humidity 98%
Rainfall 0.28 in
Snow Depth Not available.
UV 0 out of 12
Pollen 8.00 out of 12
Air Quality Not available.
Flu Activity Not available.
METAR KOPN 230255Z AUTO 06003KT 7SM OVC005 20/19 A3012 RMK AO2

More Conditions Fewer Conditions

Pressure 30.12 in
Visibility 7.0 miles
Clouds Overcast 500 ft
Dew Point 65 °F
Humidity 98%
Rainfall 0.28 in
Snow Depth Not available.
UV 0 out of 12
Pollen 8.00 out of 12
Air Quality Not available.
Flu Activity Not available.
METAR KOPN 230255Z AUTO 06003KT 7SM OVC005 20/19 A3012 RMK AO2

More Conditions Fewer Conditions

10-Day Weather Forecast

Almanac

Astronomy

Sep. 22, 2014 Rise Set
Actual Time 7:25 AM EDT 7:33 PM EDT
Civil Twilight 7:00 AM EDT 7:58 PM EDT
Nautical Twilight 6:31 AM EDT 8:26 PM EDT
Astronomical Twilight 6:02 AM EDT 8:55 PM EDT
Moon 5:56 AM EDT (9/22) 6:38 PM EDT (9/22)
Length of Visible Light 12h 57m
Length of Day
12h 08m
Tomorrow will be 1m 59s shorter.
Waning Crescent, 1% of the Moon is Illuminated
Today
Waning Crescent
Sep 24
New
Oct 1
First Quarter
Oct 8
Full
Oct 15
Last Quarter

Today's Extremes

State Highs State Lows

Community

WunderPhotos

Upload Photos

1,755,603 photos uploaded!

Nearby

Snow Depth

Station Depth Elevation
No new snow has been reported.

Earthquake Activity

City Distance Mag. Time & Date
No recent earthquake activity has been reported nearby.
Minimum magnitude displayed is 2.5.

Coastal Water Temperatures

Place Temperature
No Stations Reporting

Nearby Weather Stations